Time;durP1;ratioP1;P1;durP2;ratioP2;P2;SDS_P1;SDS_P2;PMS_P1;PMS_P2;Temp;Humidity;BMP_temperature;BMP_pressure;BME280_temperature;BME280_humidity;BME280_pressure;Samples;Min_cycle;Max_cycle;Signal;HPM_P1;HPM_P2
2023/03/01 00:00:32;;;;;;;9.75;8.68;;;3.90;99.90;;;;;;1908653;75;21051;-90
2023/03/01 00:03:24;;;;;;;10.82;8.70;;;3.90;99.90;;;;;;1909125;75;21185;-90
2023/03/01 00:06:16;;;;;;;9.78;8.45;;;3.90;99.90;;;;;;1906266;75;21096;-89
2023/03/01 00:09:08;;;;;;;11.00;8.63;;;3.90;99.90;;;;;;1917471;74;21080;-89
2023/03/01 00:12:08;;;;;;;11.12;8.98;;;3.90;99.90;;;;;;1904752;75;21168;-89
2023/03/01 00:15:00;;;;;;;10.18;8.65;;;3.90;99.90;;;;;;1904774;75;21157;-89
2023/03/01 00:17:54;;;;;;;11.40;8.75;;;3.90;99.90;;;;;;1905846;75;21147;-89
2023/03/01 00:20:52;;;;;;;11.25;9.38;;;3.90;99.90;;;;;;1904035;75;21107;-91
2023/03/01 00:26:39;;;;;;;11.65;9.58;;;3.90;99.90;;;;;;1957854;72;22178;-89
2023/03/01 00:29:32;;;;;;;11.57;9.40;;;3.90;99.90;;;;;;1904935;75;21631;-90
2023/03/01 00:32:25;;;;;;;10.90;8.48;;;3.90;99.90;;;;;;1901140;75;21161;-89
2023/03/01 00:35:23;;;;;;;10.15;8.60;;;4.00;99.90;;;;;;1872668;75;21162;-89
2023/03/01 00:38:17;;;;;;;9.90;8.75;;;4.00;99.90;;;;;;1862321;76;21102;-89
2023/03/01 00:41:10;;;;;;;10.25;9.15;;;4.00;99.90;;;;;;1884451;75;21067;-90
2023/03/01 00:44:04;;;;;;;11.15;8.88;;;4.00;99.90;;;;;;1872410;75;21106;-89
2023/03/01 00:46:58;;;;;;;10.98;8.95;;;4.00;99.90;;;;;;1902246;75;21059;-89
2023/03/01 00:49:49;;;;;;;11.53;9.25;;;4.10;99.90;;;;;;1872838;76;21557;-88
2023/03/01 00:52:41;;;;;;;10.60;9.23;;;4.10;99.90;;;;;;1874121;75;21556;-91
2023/03/01 00:55:32;;;;;;;10.28;9.15;;;4.10;99.90;;;;;;1903797;75;21129;-89
2023/03/01 00:58:24;;;;;;;10.68;9.58;;;4.10;99.90;;;;;;1902687;75;21191;-89
2023/03/01 01:01:18;;;;;;;10.90;8.60;;;4.10;99.90;;;;;;1904845;75;21086;-90
2023/03/01 01:06:52;;;;;;;11.00;9.43;;;4.10;99.90;;;;;;1942857;72;22353;-90
2023/03/01 01:09:44;;;;;;;10.82;9.45;;;4.10;99.90;;;;;;1917248;75;21079;-90
2023/03/01 01:12:35;;;;;;;10.38;9.08;;;4.20;99.90;;;;;;1917229;75;21148;-90
2023/03/01 01:15:27;;;;;;;11.40;9.68;;;4.10;99.90;;;;;;1917459;75;21156;-89
2023/03/01 01:18:18;;;;;;;10.32;9.25;;;4.10;99.90;;;;;;1917161;75;21137;-89
2023/03/01 01:21:12;;;;;;;11.10;9.30;;;4.40;99.90;;;;;;1917101;75;21097;-90
2023/03/01 01:24:05;;;;;;;10.32;9.25;;;4.40;99.90;;;;;;1917584;75;21189;-89
2023/03/01 01:26:57;;;;;;;12.60;10.18;;;4.30;99.90;;;;;;1917753;75;21101;-90
2023/03/01 01:29:48;;;;;;;10.45;9.30;;;4.20;99.90;;;;;;1917433;75;21134;-90
2023/03/01 01:32:40;;;;;;;11.80;9.15;;;4.20;99.90;;;;;;1916841;75;21165;-90
2023/03/01 01:35:31;;;;;;;11.25;9.40;;;4.20;99.90;;;;;;1917199;75;21118;-89
2023/03/01 01:41:07;;;;;;;13.68;10.43;;;4.30;99.90;;;;;;1956990;72;22238;-90
2023/03/01 01:44:20;;;;;;;12.03;10.45;;;4.30;99.90;;;;;;1898462;75;21110;-89
2023/03/01 01:47:16;;;;;;;11.97;10.58;;;4.40;99.90;;;;;;1872674;76;21168;-90
2023/03/01 01:50:19;;;;;;;15.43;12.18;;;4.50;99.90;;;;;;1874570;76;21055;-89
2023/03/01 01:53:26;;;;;;;14.50;11.93;;;4.50;99.90;;;;;;1895258;75;21095;-89
2023/03/01 01:56:19;;;;;;;14.10;11.50;;;4.40;99.90;;;;;;1886766;75;21114;-89
2023/03/01 01:59:13;;;;;;;14.05;12.25;;;4.30;99.90;;;;;;1872247;76;21094;-90
2023/03/01 02:02:06;;;;;;;14.93;12.15;;;4.30;99.90;;;;;;1881417;75;21476;-89
2023/03/01 02:05:03;;;;;;;14.73;12.10;;;4.30;99.90;;;;;;1878983;75;21178;-89
2023/03/01 02:07:55;;;;;;;16.23;12.28;;;4.30;99.90;;;;;;1873374;75;21095;-89
2023/03/01 02:10:49;;;;;;;13.85;11.83;;;4.30;99.90;;;;;;1888387;75;21177;-89
2023/03/01 02:13:44;;;;;;;14.47;12.13;;;4.30;99.90;;;;;;1885734;75;21103;-89
2023/03/01 02:16:36;;;;;;;13.38;11.90;;;4.30;99.90;;;;;;1875077;75;21196;-90
2023/03/01 02:22:22;;;;;;;15.58;12.25;;;4.30;99.90;;;;;;1946661;72;22127;-89
2023/03/01 02:25:23;;;;;;;14.93;12.90;;;4.30;99.90;;;;;;1894778;75;21182;-89
2023/03/01 02:28:33;;;;;;;14.53;11.75;;;4.40;99.90;;;;;;1885547;75;21225;-90
2023/03/01 02:31:44;;;;;;;15.18;12.18;;;4.30;99.90;;;;;;1884341;75;21188;-90
2023/03/01 02:34:36;;;;;;;14.18;11.65;;;4.30;99.90;;;;;;1872281;76;21091;-89
2023/03/01 02:37:28;;;;;;;14.95;12.28;;;4.30;99.90;;;;;;1900056;75;21165;-89
2023/03/01 02:40:21;;;;;;;15.15;11.53;;;4.30;99.90;;;;;;1904308;75;21545;-90
2023/03/01 02:43:15;;;;;;;14.33;12.43;;;4.30;99.90;;;;;;1872993;76;21068;-90
2023/03/01 02:46:10;;;;;;;15.08;12.40;;;4.30;99.90;;;;;;1885685;75;21091;-90
2023/03/01 02:49:02;;;;;;;15.10;12.30;;;4.30;99.90;;;;;;1883860;75;21107;-90
2023/03/01 02:52:04;;;;;;;14.75;11.97;;;4.30;99.90;;;;;;1883846;75;21090;-90
2023/03/01 02:55:05;;;;;;;14.70;12.37;;;4.30;99.90;;;;;;1883457;75;21110;-90
2023/03/01 02:58:04;;;;;;;;;;;4.20;99.90;;;;;;1886429;75;21165;-90
2023/03/01 03:00:59;;;;;;;14.00;11.63;;;4.20;99.90;;;;;;1888313;75;20162;-90
2023/03/01 03:03:53;;;;;;;14.47;12.03;;;4.20;99.90;;;;;;1904950;75;21256;-89
2023/03/01 03:06:54;;;;;;;15.03;12.30;;;4.20;99.90;;;;;;1883450;75;21217;-89
2023/03/01 03:09:46;;;;;;;14.43;12.25;;;4.20;99.90;;;;;;1883731;75;21094;-89
2023/03/01 03:12:38;;;;;;;16.12;12.47;;;4.10;99.90;;;;;;1884627;75;21118;-89
2023/03/01 03:18:13;;;;;;;14.55;12.53;;;4.10;99.90;;;;;;1943251;72;22220;-90
2023/03/01 03:21:07;;;;;;;16.35;12.43;;;4.10;99.90;;;;;;1917919;75;21121;-90
2023/03/01 03:23:59;;;;;;;14.63;12.40;;;4.10;99.90;;;;;;1917332;75;21102;-90
2023/03/01 03:26:50;;;;;;;14.78;12.65;;;4.10;99.90;;;;;;1917061;75;21500;-89
2023/03/01 03:29:41;;;;;;;13.72;11.97;;;4.10;99.90;;;;;;1927539;73;21118;-89
2023/03/01 03:32:33;;;;;;;15.13;12.40;;;4.10;99.90;;;;;;1945719;73;21294;-88
2023/03/01 03:35:29;;;;;;;15.68;12.75;;;4.10;99.90;;;;;;1938788;73;21051;-88
2023/03/01 03:38:22;;;;;;;16.57;13.62;;;4.20;99.90;;;;;;1917591;75;21153;-89
2023/03/01 03:41:13;;;;;;;16.02;13.05;;;4.20;99.90;;;;;;1917491;75;21168;-89
2023/03/01 03:44:05;;;;;;;16.20;13.18;;;4.20;99.90;;;;;;1939961;73;21102;-89
2023/03/01 03:46:57;;;;;;;17.17;13.55;;;4.20;99.90;;;;;;1864666;76;21341;-89
2023/03/01 03:49:48;;;;;;;15.40;13.13;;;4.20;99.90;;;;;;1917529;75;21113;-89
2023/03/01 03:52:39;;;;;;;14.83;13.00;;;4.20;99.90;;;;;;1918196;73;21079;-88
2023/03/01 03:55:38;;;;;;;15.72;12.95;;;4.20;99.90;;;;;;1917411;75;21157;-89
2023/03/01 03:58:30;;;;;;;17.48;13.35;;;4.20;99.90;;;;;;1922051;73;21202;-89
2023/03/01 04:01:23;;;;;;;16.70;13.80;;;4.20;99.90;;;;;;1929296;73;21156;-89
2023/03/01 04:04:17;;;;;;;16.93;12.80;;;4.20;99.90;;;;;;1864576;76;21179;-90
2023/03/01 04:09:48;;;;;;;14.98;13.15;;;4.20;99.90;;;;;;1975809;72;22154;-90
2023/03/01 04:12:43;;;;;;;16.57;13.62;;;4.10;99.90;;;;;;1916947;73;21139;-90
2023/03/01 04:15:34;;;;;;;15.95;13.48;;;4.10;99.90;;;;;;1905818;74;21192;-89
2023/03/01 04:18:26;;;;;;;18.10;13.60;;;4.20;99.90;;;;;;1905121;75;21542;-89
2023/03/01 04:21:20;;;;;;;15.25;12.35;;;4.20;99.90;;;;;;1905297;75;21102;-89
2023/03/01 04:24:12;;;;;;;15.80;13.18;;;4.20;99.90;;;;;;1905146;75;21099;-89
2023/03/01 04:27:04;;;;;;;16.35;12.70;;;4.20;99.90;;;;;;1904765;75;21125;-90
2023/03/01 04:29:59;;;;;;;15.50;12.93;;;4.20;99.90;;;;;;1868205;77;21395;-91
2023/03/01 04:32:50;;;;;;;15.45;13.20;;;4.20;99.90;;;;;;1864389;76;21161;-90
2023/03/01 04:35:42;;;;;;;15.72;13.45;;;4.20;99.90;;;;;;1862398;77;21155;-90
2023/03/01 04:38:33;;;;;;;16.20;13.48;;;4.10;99.90;;;;;;1905002;75;21115;-90
2023/03/01 04:41:26;;;;;;;16.70;13.20;;;4.10;99.90;;;;;;1905032;75;21101;-88
2023/03/01 04:44:19;;;;;;;16.00;13.28;;;4.10;99.90;;;;;;1905019;74;21121;-90
2023/03/01 04:47:11;;;;;;;15.28;12.93;;;4.10;99.90;;;;;;1910458;74;21103;-90
2023/03/01 04:50:03;;;;;;;16.45;13.45;;;4.10;99.90;;;;;;1916202;74;21098;-90
2023/03/01 04:56:07;;;;;;;17.32;13.72;;;4.20;99.90;;;;;;2084581;68;22081;-89
2023/03/01 04:59:00;;;;;;;17.77;13.80;;;4.10;99.90;;;;;;2001072;70;21111;-90
2023/03/01 05:01:51;;;;;;;19.87;14.00;;;4.20;99.90;;;;;;2004419;70;21078;-90
2023/03/01 05:04:43;;;;;;;17.27;13.98;;;4.20;99.90;;;;;;2010422;70;21200;-90
2023/03/01 05:07:34;;;;;;;16.17;13.90;;;4.30;99.90;;;;;;1954917;73;21063;-90
2023/03/01 05:10:28;;;;;;;17.62;13.80;;;4.20;99.90;;;;;;2022277;70;21110;-89
2023/03/01 05:13:21;;;;;;;16.75;13.60;;;4.10;99.90;;;;;;1998272;70;21082;-89
2023/03/01 05:16:13;;;;;;;16.60;13.83;;;4.10;99.90;;;;;;2000024;70;21086;-89
2023/03/01 05:19:11;;;;;;;16.20;13.55;;;4.10;99.90;;;;;;2014763;70;21077;-90
2023/03/01 05:22:04;;;;;;;18.40;13.75;;;4.10;99.90;;;;;;2013816;70;21076;-92
2023/03/01 05:24:56;;;;;;;12.45;9.90;;;4.10;99.90;;;;;;2034919;70;21090;-90
2023/03/01 05:27:48;;;;;;;14.53;12.95;;;4.10;99.90;;;;;;2009749;70;21161;-91
2023/03/01 05:30:39;;;;;;;17.57;13.90;;;4.10;99.90;;;;;;2010913;70;21096;-92
2023/03/01 05:33:30;;;;;;;16.95;13.95;;;4.20;99.90;;;;;;2016718;70;21035;-89
2023/03/01 05:36:22;;;;;;;16.85;14.13;;;4.20;99.90;;;;;;2010657;70;21086;-91
2023/03/01 05:39:13;;;;;;;17.32;13.35;;;4.10;99.90;;;;;;2029388;70;21100;-89
2023/03/01 05:42:05;;;;;;;17.10;13.60;;;4.10;99.90;;;;;;1998975;71;21507;-90
2023/03/01 05:44:56;;;;;;;16.17;13.62;;;4.10;99.90;;;;;;2017716;70;21066;-89
2023/03/01 05:47:49;;;;;;;17.70;14.40;;;4.10;99.90;;;;;;2013157;70;21078;-90
2023/03/01 05:50:43;;;;;;;16.85;14.03;;;4.10;99.90;;;;;;2027416;70;21066;-90
2023/03/01 05:53:35;;;;;;;18.37;14.23;;;4.10;99.90;;;;;;2005386;70;21027;-92
2023/03/01 05:56:29;;;;;;;18.77;13.72;;;4.10;99.90;;;;;;2033350;70;21106;-89
2023/03/01 05:59:26;;;;;;;17.05;13.88;;;4.10;99.90;;;;;;2034309;70;21065;-90
2023/03/01 06:02:17;;;;;;;16.30;13.43;;;4.10;99.90;;;;;;2034742;70;21074;-89
2023/03/01 06:05:12;;;;;;;16.73;13.38;;;4.10;99.90;;;;;;2026928;70;21030;-90
2023/03/01 06:08:04;;;;;;;16.10;13.17;;;4.00;99.90;;;;;;2000904;70;21142;-89
2023/03/01 06:10:55;;;;;;;19.07;14.45;;;4.00;99.90;;;;;;2013543;70;21132;-89
2023/03/01 06:13:47;;;;;;;16.32;13.60;;;3.90;99.90;;;;;;1997575;71;21159;-90
2023/03/01 06:16:39;;;;;;;17.05;14.60;;;3.90;99.90;;;;;;2022796;70;21035;-91
2023/03/01 06:19:31;;;;;;;18.23;14.60;;;3.90;99.90;;;;;;2026894;70;21070;-90
2023/03/01 06:22:23;;;;;;;19.05;14.40;;;4.00;99.90;;;;;;2012148;70;21086;-90
2023/03/01 06:25:17;;;;;;;18.02;14.13;;;4.00;99.90;;;;;;2014857;70;21038;-90
2023/03/01 06:28:08;;;;;;;18.60;14.20;;;4.00;99.90;;;;;;2034748;70;21031;-92
2023/03/01 06:31:00;;;;;;;16.80;13.75;;;4.00;99.90;;;;;;2028311;70;21074;-91
2023/03/01 06:33:51;;;;;;;16.45;13.38;;;4.00;99.90;;;;;;2022130;70;21132;-90
2023/03/01 06:36:43;;;;;;;17.77;14.63;;;4.00;99.90;;;;;;1997920;72;21090;-90
2023/03/01 06:39:35;;;;;;;21.75;15.30;;;4.00;99.90;;;;;;2011532;70;21637;-90
2023/03/01 06:42:26;;;;;;;20.48;14.93;;;4.10;99.90;;;;;;2026667;70;21070;-90
2023/03/01 06:45:19;;;;;;;18.90;14.98;;;4.00;99.90;;;;;;2023322;70;21079;-90
2023/03/01 06:48:10;;;;;;;18.23;14.50;;;4.00;99.90;;;;;;2018803;70;21133;-90
2023/03/01 06:51:02;;;;;;;20.57;15.05;;;3.90;99.90;;;;;;2035039;70;21023;-91
2023/03/01 06:53:57;;;;;;;18.32;14.60;;;4.10;99.90;;;;;;2024954;70;21088;-91
2023/03/01 06:56:54;;;;;;;17.42;14.90;;;4.10;99.90;;;;;;2022373;70;21157;-90
2023/03/01 06:59:45;;;;;;;19.20;14.47;;;4.10;99.90;;;;;;2022064;70;21108;-90
2023/03/01 07:02:38;;;;;;;19.32;15.45;;;4.00;99.90;;;;;;2016494;70;21097;-90
2023/03/01 07:05:30;;;;;;;21.40;15.75;;;4.00;99.90;;;;;;2010590;70;21544;-90
2023/03/01 07:08:21;;;;;;;19.37;14.83;;;4.00;99.90;;;;;;2027513;70;21035;-90
2023/03/01 07:11:13;;;;;;;22.32;16.50;;;4.00;99.90;;;;;;2022403;70;21133;-90
2023/03/01 07:14:06;;;;;;;25.75;18.55;;;4.00;99.90;;;;;;1997931;72;21086;-91
2023/03/01 07:16:59;;;;;;;25.05;18.85;;;3.80;99.90;;;;;;2012878;70;21086;-91
2023/03/01 07:19:51;;;;;;;26.40;17.45;;;3.60;99.90;;;;;;1999691;70;21284;-90
2023/03/01 07:22:43;;;;;;;23.85;18.00;;;3.70;99.90;;;;;;2001746;70;21089;-91
2023/03/01 07:25:35;;;;;;;24.12;18.12;;;3.60;99.90;;;;;;2011014;70;21117;-89
2023/03/01 07:28:27;;;;;;;25.17;17.87;;;3.60;99.90;;;;;;1997488;72;21089;-90
2023/03/01 07:31:19;;;;;;;25.77;17.55;;;3.60;99.90;;;;;;1997620;71;21545;-90
2023/03/01 07:34:11;;;;;;;20.67;16.83;;;3.70;99.90;;;;;;2029676;70;21112;-90
2023/03/01 07:37:02;;;;;;;25.00;17.45;;;3.60;99.90;;;;;;2008989;70;21305;-90
2023/03/01 07:39:54;;;;;;;20.12;15.70;;;3.40;99.90;;;;;;1997511;72;21061;-92
2023/03/01 07:42:46;;;;;;;22.55;15.55;;;3.40;99.90;;;;;;2012264;70;21035;-90
2023/03/01 07:45:38;;;;;;;21.65;15.72;;;3.30;99.90;;;;;;2009088;70;21659;-89
2023/03/01 07:48:30;;;;;;;22.25;15.40;;;3.40;99.90;;;;;;2032569;70;21150;-90
2023/03/01 07:51:21;;;;;;;23.67;17.35;;;3.40;99.90;;;;;;2018406;70;21082;-90
2023/03/01 07:54:14;;;;;;;31.70;18.23;;;3.60;99.90;;;;;;2035964;70;21099;-89
2023/03/01 07:57:08;;;;;;;25.32;17.98;;;3.60;99.90;;;;;;2035401;70;21087;-91
2023/03/01 07:59:59;;;;;;;28.05;18.05;;;3.50;99.90;;;;;;2009729;70;21139;-90
2023/03/01 08:02:53;;;;;;;24.90;17.60;;;3.40;99.90;;;;;;2021233;70;21058;-90
2023/03/01 08:05:57;;;;;;;31.12;18.30;;;3.40;99.90;;;;;;2017348;70;21047;-92
2023/03/01 08:08:49;;;;;;;26.33;18.42;;;3.30;99.90;;;;;;2011964;70;21323;-90
2023/03/01 08:11:41;;;;;;;24.75;17.45;;;3.40;99.90;;;;;;2009930;70;21147;-89
2023/03/01 08:14:33;;;;;;;27.30;17.73;;;3.50;99.90;;;;;;2006456;70;21082;-90
2023/03/01 08:17:26;;;;;;;25.62;16.50;;;3.50;99.90;;;;;;1997974;72;21120;-90
2023/03/01 08:20:19;;;;;;;24.77;16.80;;;3.40;99.90;;;;;;1998094;72;21086;-90
2023/03/01 08:23:11;;;;;;;23.62;17.30;;;3.50;99.90;;;;;;1954325;73;21137;-90
2023/03/01 08:26:12;;;;;;;24.30;17.20;;;3.50;99.90;;;;;;1976134;72;21106;-90
2023/03/01 08:29:04;;;;;;;24.67;17.32;;;3.50;99.90;;;;;;1937765;73;21095;-90
2023/03/01 08:31:56;;;;;;;25.10;18.20;;;3.60;99.90;;;;;;1937064;73;21095;-90
2023/03/01 08:34:49;;;;;;;24.30;17.15;;;3.70;99.90;;;;;;1941921;73;21133;-90
2023/03/01 08:37:41;;;;;;;24.25;17.73;;;3.80;99.90;;;;;;1997994;71;21086;-90
2023/03/01 08:40:33;;;;;;;25.08;16.77;;;3.90;99.90;;;;;;1984502;71;21099;-90
2023/03/01 08:43:24;;;;;;;21.07;16.27;;;4.00;99.90;;;;;;1984254;72;21028;-90
2023/03/01 08:46:17;;;;;;;23.87;16.48;;;4.00;99.90;;;;;;1984670;72;21109;-90
2023/03/01 08:49:11;;;;;;;26.52;17.00;;;4.00;99.90;;;;;;1984009;72;21074;-90
2023/03/01 08:52:04;;;;;;;26.65;18.23;;;3.90;99.90;;;;;;2013780;71;21541;-91
2023/03/01 08:54:57;;;;;;;25.70;16.82;;;3.80;99.90;;;;;;1995419;71;21071;-89
2023/03/01 08:57:50;;;;;;;28.10;18.20;;;3.80;99.90;;;;;;2003826;70;21206;-90
2023/03/01 09:00:42;;;;;;;25.57;16.67;;;3.90;99.90;;;;;;2001508;71;21070;-91
2023/03/01 09:03:35;;;;;;;23.12;16.73;;;4.00;99.90;;;;;;1990845;71;21055;-89
2023/03/01 09:06:27;;;;;;;28.65;17.92;;;4.10;99.90;;;;;;1987628;71;21086;-90
2023/03/01 09:09:21;;;;;;;26.27;16.97;;;4.30;99.90;;;;;;2010596;71;21086;-90
2023/03/01 09:12:13;;;;;;;23.18;16.95;;;4.40;99.90;;;;;;2024037;71;21087;-91
2023/03/01 09:15:06;;;;;;;29.80;17.30;;;4.50;99.90;;;;;;2013322;71;21035;-91
2023/03/01 09:18:00;;;;;;;23.67;17.67;;;4.50;99.90;;;;;;1993050;71;21087;-91
2023/03/01 09:20:54;;;;;;;24.92;17.15;;;4.50;99.90;;;;;;1999353;71;21122;-91
2023/03/01 09:23:48;;;;;;;21.90;17.05;;;4.50;99.90;;;;;;1987019;72;21098;-90
2023/03/01 09:26:39;;;;;;;22.85;17.10;;;4.60;99.90;;;;;;2001796;71;21016;-91
2023/03/01 09:32:16;;;;;;;24.63;17.00;;;4.80;99.90;;;;;;1955497;72;20404;-90
2023/03/01 09:35:09;;;;;;;23.25;17.62;;;4.90;99.90;;;;;;1868844;76;21114;-89
2023/03/01 09:38:01;;;;;;;24.47;17.27;;;4.90;99.90;;;;;;1905255;75;21138;-90
2023/03/01 09:40:53;;;;;;;21.57;15.88;;;4.90;99.90;;;;;;1905232;75;21187;-89
2023/03/01 09:43:53;;;;;;;22.17;16.80;;;4.90;99.90;;;;;;1905304;75;21091;-88
2023/03/01 09:46:45;;;;;;;23.05;16.60;;;5.00;99.90;;;;;;1905265;75;21088;-89
2023/03/01 09:49:39;;;;;;;20.55;16.60;;;5.20;99.90;;;;;;1904892;75;21143;-90
2023/03/01 09:52:37;;;;;;;20.88;16.30;;;5.30;99.90;;;;;;1905443;75;21093;-89
2023/03/01 09:55:33;;;;;;;22.37;17.02;;;5.40;99.90;;;;;;1905532;75;21178;-88
2023/03/01 09:58:40;;;;;;;22.35;16.45;;;5.60;99.90;;;;;;1906680;75;21080;-90
2023/03/01 10:01:38;;;;;;;20.35;15.85;;;5.60;99.90;;;;;;1930466;74;21090;-89
2023/03/01 10:04:41;;;;;;;21.23;17.12;;;5.50;99.90;;;;;;1896692;75;21102;-89
2023/03/01 10:07:39;;;;;;;20.88;15.50;;;5.60;99.90;;;;;;1904664;75;21124;-90
2023/03/01 10:10:35;;;;;;;22.35;16.57;;;5.60;99.90;;;;;;1904931;75;21099;-90
2023/03/01 10:13:39;;;;;;;22.00;16.25;;;5.70;99.90;;;;;;1904665;75;21158;-90
2023/03/01 10:16:36;;;;;;;22.10;16.50;;;5.80;99.90;;;;;;1904867;75;21190;-90
2023/03/01 10:19:31;;;;;;;21.00;16.32;;;5.80;99.90;;;;;;1905270;75;21197;-89
2023/03/01 10:22:25;;;;;;;21.42;16.65;;;5.90;99.90;;;;;;1904882;75;21094;-91
2023/03/01 10:25:34;;;;;;;26.10;17.15;;;6.00;99.90;;;;;;1929271;74;21172;-90
2023/03/01 10:28:29;;;;;;;20.88;16.00;;;6.20;99.90;;;;;;1904736;75;21055;-89
2023/03/01 10:31:27;;;;;;;20.55;16.15;;;6.60;99.90;;;;;;1917470;73;21161;-90
2023/03/01 10:34:20;;;;;;;22.58;16.93;;;6.80;99.90;;;;;;1937863;73;21106;-89
2023/03/01 10:37:19;;;;;;;20.17;15.90;;;7.00;99.90;;;;;;1913660;74;21103;-89
2023/03/01 10:40:13;;;;;;;21.48;16.48;;;6.80;99.90;;;;;;1850032;77;21063;-89
2023/03/01 10:43:07;;;;;;;20.75;16.37;;;6.70;99.90;;;;;;1904837;74;21115;-89
2023/03/01 10:45:59;;;;;;;20.77;16.20;;;6.80;99.90;;;;;;1904675;75;21099;-90
2023/03/01 10:49:07;;;;;;;24.07;17.87;;;7.00;99.90;;;;;;1904820;75;21094;-91
2023/03/01 10:52:02;;;;;;;23.02;16.20;;;7.00;99.90;;;;;;1917033;74;21114;-90
2023/03/01 10:54:56;;;;;;;22.05;17.32;;;6.90;99.90;;;;;;1926699;74;21250;-89
2023/03/01 10:57:48;;;;;;;23.45;16.12;;;7.20;99.90;;;;;;1920366;74;21164;-89
2023/03/01 11:00:50;;;;;;;21.07;16.35;;;7.30;99.90;;;;;;1903876;75;21154;-89
2023/03/01 11:03:42;;;;;;;21.95;17.15;;;7.20;99.90;;;;;;1904538;75;21103;-89
2023/03/01 11:06:36;;;;;;;21.00;16.23;;;7.10;99.90;;;;;;1905040;75;21147;-91
2023/03/01 11:09:38;;;;;;;21.90;16.45;;;7.20;99.90;;;;;;1867941;77;21142;-91
2023/03/01 11:12:29;;;;;;;22.75;15.90;;;7.10;99.90;;;;;;1922194;74;21103;-90
2023/03/01 11:15:27;;;;;;;24.95;17.15;;;7.20;99.90;;;;;;1903992;75;21055;-90
2023/03/01 11:21:10;;;;;;;21.45;17.05;;;7.10;99.90;;;;;;1953856;72;22103;-90
2023/03/01 11:24:05;;;;;;;20.82;15.63;;;7.00;99.90;;;;;;1906332;75;21119;-89
2023/03/01 11:26:59;;;;;;;22.00;16.40;;;6.90;99.90;;;;;;1884871;76;21110;-89
2023/03/01 11:29:57;;;;;;;20.70;16.95;;;6.90;99.90;;;;;;1885268;76;21121;-91
2023/03/01 11:32:52;;;;;;;22.30;17.07;;;6.90;99.90;;;;;;1907397;75;21208;-89
2023/03/01 11:35:51;;;;;;;25.10;17.45;;;6.70;99.90;;;;;;1906805;75;21114;-91
2023/03/01 11:38:47;;;;;;;25.05;17.65;;;6.70;99.90;;;;;;1886686;75;21149;-90
2023/03/01 11:41:42;;;;;;;24.67;17.75;;;6.80;99.90;;;;;;1917400;75;21090;-90
2023/03/01 11:44:36;;;;;;;22.55;17.75;;;6.80;99.90;;;;;;1917098;75;21086;-90
2023/03/01 11:47:37;;;;;;;29.07;19.05;;;6.60;99.90;;;;;;1907076;75;21174;-90
2023/03/01 11:50:34;;;;;;;24.57;18.82;;;6.50;99.90;;;;;;1906623;75;21147;-91
2023/03/01 11:53:40;;;;;;;25.90;19.27;;;6.50;99.90;;;;;;1888616;75;21213;-90
2023/03/01 11:56:35;;;;;;;25.77;18.65;;;6.60;99.90;;;;;;1896334;75;21078;-89
2023/03/01 12:00:03;;;;;;;23.98;17.15;;;6.70;99.90;;;;;;1901035;75;21100;-89
2023/03/01 12:03:42;;;;;;;24.63;17.75;;;6.40;99.90;;;;;;1917997;75;21202;-90
2023/03/01 12:06:42;;;;;;;25.50;18.23;;;6.20;99.90;;;;;;1883135;75;21124;-91
2023/03/01 12:09:50;;;;;;;23.35;17.37;;;5.90;99.90;;;;;;1885322;75;21219;-92
2023/03/01 12:12:46;;;;;;;;;;;5.90;99.90;;;;;;1920005;75;21102;-90
2023/03/01 12:15:48;;;;;;;23.38;17.42;;;6.00;99.90;;;;;;1902329;75;20167;-89
2023/03/01 12:18:57;;;;;;;21.05;16.10;;;5.90;99.90;;;;;;1898062;75;21121;-90
2023/03/01 12:21:57;;;;;;;22.30;16.27;;;5.80;99.90;;;;;;1896991;74;21240;-89
2023/03/01 12:25:16;;;;;;;24.50;17.90;;;5.80;99.90;;;;;;1901656;75;21109;-92
2023/03/01 12:28:45;;;;;;;23.75;17.20;;;5.70;99.90;;;;;;1879668;76;21276;-90
2023/03/01 12:32:17;;;;;;;22.93;17.52;;;5.80;99.90;;;;;;1880088;76;21151;-90
2023/03/01 12:35:24;;;;;;;24.10;16.77;;;5.80;99.90;;;;;;1898237;75;21135;-90
2023/03/01 12:38:34;;;;;;;20.62;16.30;;;5.60;99.90;;;;;;1897927;75;21063;-89
2023/03/01 12:41:50;;;;;;;23.02;15.78;;;5.80;99.90;;;;;;1879008;76;21446;-89
2023/03/01 12:47:44;;;;;;;24.00;16.85;;;6.30;99.90;;;;;;1957679;72;22159;-90
2023/03/01 12:50:41;;;;;;;22.90;17.12;;;6.00;99.90;;;;;;1898180;74;21063;-90
2023/03/01 12:53:38;;;;;;;23.25;16.05;;;6.20;99.90;;;;;;1841910;78;21205;-91
2023/03/01 12:59:36;;;;;;;22.15;16.87;;;6.40;99.90;;;;;;1957583;72;22301;-90
2023/03/01 13:02:35;;;;;;;25.08;16.90;;;6.40;99.90;;;;;;1918039;75;21098;-90
2023/03/01 13:05:34;;;;;;;22.85;16.15;;;6.40;99.90;;;;;;1917485;75;21098;-90
2023/03/01 13:08:33;;;;;;;22.60;16.93;;;6.40;99.90;;;;;;1917620;75;21511;-90
2023/03/01 13:11:26;;;;;;;21.68;16.93;;;6.40;99.90;;;;;;1917380;75;21120;-91
2023/03/01 13:14:55;;;;;;;20.27;15.30;;;6.30;99.90;;;;;;1917538;75;21089;-91
2023/03/01 13:17:47;;;;;;;20.88;16.73;;;6.40;99.90;;;;;;1939877;73;21200;-91
2023/03/01 13:20:50;;;;;;;22.15;17.35;;;6.40;99.90;;;;;;1937355;73;21098;-90
2023/03/01 13:23:42;;;;;;;22.65;16.93;;;6.40;99.90;;;;;;1917511;75;21120;-90
2023/03/01 13:26:36;;;;;;;23.10;16.65;;;6.60;99.90;;;;;;1917490;75;21156;-90
2023/03/01 13:29:31;;;;;;;21.70;15.72;;;6.50;99.90;;;;;;1916937;75;21106;-90
2023/03/01 13:32:25;;;;;;;21.93;16.55;;;6.70;99.90;;;;;;1918089;75;21102;-90
2023/03/01 13:35:46;;;;;;;23.25;16.40;;;6.50;99.90;;;;;;1917899;75;21122;-90
2023/03/01 13:38:49;;;;;;;22.37;16.87;;;6.50;99.90;;;;;;1860741;76;21572;-90
2023/03/01 13:41:53;;;;;;;20.68;16.27;;;6.80;99.90;;;;;;1917224;75;21107;-89
2023/03/01 13:44:45;;;;;;;22.37;16.35;;;6.90;99.90;;;;;;1917369;75;21143;-90
2023/03/01 13:47:39;;;;;;;21.80;15.07;;;6.80;99.90;;;;;;1918012;75;21118;-91
2023/03/01 13:50:40;;;;;;;19.92;15.40;;;6.90;99.90;;;;;;1917460;75;21196;-90
2023/03/01 13:53:36;;;;;;;21.07;15.70;;;6.60;99.90;;;;;;1917794;75;21090;-89
2023/03/01 13:56:31;;;;;;;21.77;15.58;;;6.50;99.90;;;;;;1917506;75;21169;-89
2023/03/01 14:02:13;;;;;;;20.27;15.60;;;6.30;99.90;;;;;;1953714;72;22247;-91
2023/03/01 14:05:07;;;;;;;18.77;13.00;;;6.30;99.90;;;;;;1924550;74;21125;-91
2023/03/01 14:07:58;;;;;;;17.00;12.05;;;6.30;99.90;;;;;;1924034;74;21155;-91
2023/03/01 14:11:18;;;;;;;20.05;15.32;;;6.50;99.90;;;;;;1925047;74;21054;-90
2023/03/01 14:14:38;;;;;;;16.37;12.18;;;6.40;99.90;;;;;;1924008;74;21077;-91
2023/03/01 14:18:05;;;;;;;21.82;13.62;;;6.30;99.90;;;;;;1904954;75;21114;-90
2023/03/01 14:20:58;;;;;;;22.77;16.35;;;6.30;99.90;;;;;;1906452;75;21114;-91
2023/03/01 14:27:14;;;;;;;20.45;15.78;;;6.10;99.90;;;;;;1991306;71;22280;-90
2023/03/01 14:30:29;;;;;;;18.77;14.73;;;6.00;99.90;;;;;;1952675;73;21116;-88
2023/03/01 14:33:41;;;;;;;21.20;12.85;;;6.10;99.90;;;;;;2034072;70;21050;-89
2023/03/01 14:36:34;;;;;;;23.42;16.23;;;6.10;99.90;;;;;;2035643;69;21122;-89
2023/03/01 14:39:48;;;;;;;18.73;13.28;;;5.90;99.90;;;;;;2049805;69;21100;-91
2023/03/01 14:42:41;;;;;;;23.32;15.72;;;6.10;99.90;;;;;;1984744;72;21043;-92
2023/03/01 14:45:33;;;;;;;20.57;14.87;;;6.10;99.90;;;;;;2063731;69;21107;-91
2023/03/01 14:48:29;;;;;;;18.40;11.63;;;6.10;99.90;;;;;;1987155;72;21238;-89
2023/03/01 14:51:22;;;;;;;21.80;13.50;;;6.20;99.90;;;;;;2048374;69;21108;-89
2023/03/01 14:54:25;;;;;;;19.55;13.70;;;6.30;99.90;;;;;;2031680;70;21094;-90
2023/03/01 14:57:24;;;;;;;22.45;13.90;;;6.80;99.90;;;;;;2063441;69;21039;-92
2023/03/01 15:00:21;;;;;;;18.95;15.35;;;6.70;99.90;;;;;;2036984;69;21033;-89
2023/03/01 15:03:16;;;;;;;21.95;16.07;;;6.40;99.90;;;;;;2034737;70;21069;-89
2023/03/01 15:06:09;;;;;;;15.43;11.80;;;6.20;99.90;;;;;;2031772;70;21147;-92
2023/03/01 15:09:01;;;;;;;18.40;13.65;;;6.00;99.90;;;;;;2031927;70;21039;-91
2023/03/01 15:11:53;;;;;;;17.77;13.18;;;5.80;99.90;;;;;;2032337;70;21146;-91
2023/03/01 15:14:48;;;;;;;23.75;16.35;;;5.60;99.90;;;;;;2032460;70;21249;-91
2023/03/01 15:17:41;;;;;;;19.13;13.57;;;5.40;99.90;;;;;;2033873;69;21090;-91
2023/03/01 15:20:38;;;;;;;19.30;12.33;;;5.40;99.90;;;;;;2071387;69;21136;-89
2023/03/01 15:23:32;;;;;;;20.97;16.17;;;5.40;99.90;;;;;;2032088;70;21187;-89
2023/03/01 15:26:30;;;;;;;18.02;13.75;;;5.40;99.90;;;;;;2059729;69;21105;-89
2023/03/01 15:29:26;;;;;;;22.27;16.37;;;5.20;99.90;;;;;;1969152;72;21596;-90
2023/03/01 15:32:29;;;;;;;18.62;12.95;;;5.20;99.90;;;;;;2002284;71;21159;-90
2023/03/01 15:35:42;;;;;;;21.97;16.67;;;5.30;99.90;;;;;;2017341;70;21031;-90
2023/03/01 15:38:40;;;;;;;22.98;15.72;;;5.30;99.90;;;;;;1949364;73;21123;-90
2023/03/01 15:44:29;;;;;;;25.12;15.60;;;5.40;99.90;;;;;;1944971;72;22227;-90